sensor_id;sensor_type;location;lat;lon;timestamp;P1;durP1;ratioP1;P2;durP2;ratioP2
17864;SDS011;9058;52.018;4.202;2022-10-12T00:01:10;16.58;;;10.15;;
17864;SDS011;9058;52.018;4.202;2022-10-12T00:03:36;19.33;;;9.77;;
17864;SDS011;9058;52.018;4.202;2022-10-12T00:06:04;17.38;;;9.88;;
17864;SDS011;9058;52.018;4.202;2022-10-12T00:08:31;23.55;;;10.10;;
17864;SDS011;9058;52.018;4.202;2022-10-12T00:10:58;19.90;;;9.88;;
17864;SDS011;9058;52.018;4.202;2022-10-12T00:13:26;19.98;;;9.50;;
17864;SDS011;9058;52.018;4.202;2022-10-12T00:15:52;18.63;;;9.35;;
17864;SDS011;9058;52.018;4.202;2022-10-12T00:18:19;20.17;;;9.93;;
17864;SDS011;9058;52.018;4.202;2022-10-12T00:20:46;18.70;;;9.18;;
17864;SDS011;9058;52.018;4.202;2022-10-12T00:23:12;18.17;;;9.95;;
17864;SDS011;9058;52.018;4.202;2022-10-12T00:25:40;19.30;;;9.70;;
17864;SDS011;9058;52.018;4.202;2022-10-12T00:28:07;17.63;;;9.98;;
17864;SDS011;9058;52.018;4.202;2022-10-12T00:30:37;22.45;;;9.68;;
17864;SDS011;9058;52.018;4.202;2022-10-12T00:33:05;20.83;;;9.05;;
17864;SDS011;9058;52.018;4.202;2022-10-12T00:35:32;20.85;;;9.32;;
17864;SDS011;9058;52.018;4.202;2022-10-12T00:37:59;15.10;;;8.85;;
17864;SDS011;9058;52.018;4.202;2022-10-12T00:40:26;24.52;;;9.38;;
17864;SDS011;9058;52.018;4.202;2022-10-12T00:42:53;17.80;;;9.20;;
17864;SDS011;9058;52.018;4.202;2022-10-12T00:45:19;22.33;;;9.57;;
17864;SDS011;9058;52.018;4.202;2022-10-12T00:47:49;18.15;;;9.27;;
17864;SDS011;9058;52.018;4.202;2022-10-12T00:50:17;23.83;;;9.88;;
17864;SDS011;9058;52.018;4.202;2022-10-12T00:52:48;19.30;;;8.93;;
17864;SDS011;9058;52.018;4.202;2022-10-12T00:55:17;16.20;;;9.20;;
17864;SDS011;9058;52.018;4.202;2022-10-12T00:57:44;15.63;;;9.63;;
17864;SDS011;9058;52.018;4.202;2022-10-12T01:00:13;21.02;;;9.95;;
17864;SDS011;9058;52.018;4.202;2022-10-12T01:02:40;21.00;;;9.93;;
17864;SDS011;9058;52.018;4.202;2022-10-12T01:05:09;16.48;;;9.18;;
17864;SDS011;9058;52.018;4.202;2022-10-12T01:07:37;16.55;;;9.25;;
17864;SDS011;9058;52.018;4.202;2022-10-12T01:10:05;22.33;;;9.25;;
17864;SDS011;9058;52.018;4.202;2022-10-12T01:12:33;23.13;;;9.43;;
17864;SDS011;9058;52.018;4.202;2022-10-12T01:14:59;18.20;;;8.88;;
17864;SDS011;9058;52.018;4.202;2022-10-12T01:17:32;19.23;;;9.25;;
17864;SDS011;9058;52.018;4.202;2022-10-12T01:20:07;18.02;;;9.18;;
17864;SDS011;9058;52.018;4.202;2022-10-12T01:22:40;19.10;;;9.75;;
17864;SDS011;9058;52.018;4.202;2022-10-12T01:25:10;19.65;;;9.88;;
17864;SDS011;9058;52.018;4.202;2022-10-12T01:27:45;18.17;;;9.20;;
17864;SDS011;9058;52.018;4.202;2022-10-12T01:30:17;21.30;;;10.15;;
17864;SDS011;9058;52.018;4.202;2022-10-12T01:32:49;22.50;;;9.65;;
17864;SDS011;9058;52.018;4.202;2022-10-12T01:35:19;24.48;;;10.65;;
17864;SDS011;9058;52.018;4.202;2022-10-12T01:37:50;20.05;;;9.57;;
17864;SDS011;9058;52.018;4.202;2022-10-12T01:40:19;21.58;;;11.02;;
17864;SDS011;9058;52.018;4.202;2022-10-12T01:42:48;26.25;;;11.40;;
17864;SDS011;9058;52.018;4.202;2022-10-12T01:45:17;19.98;;;9.88;;
17864;SDS011;9058;52.018;4.202;2022-10-12T01:47:44;18.58;;;11.68;;
17864;SDS011;9058;52.018;4.202;2022-10-12T01:50:13;18.63;;;10.95;;
17864;SDS011;9058;52.018;4.202;2022-10-12T01:52:42;16.98;;;10.68;;
17864;SDS011;9058;52.018;4.202;2022-10-12T01:55:15;27.13;;;10.98;;
17864;SDS011;9058;52.018;4.202;2022-10-12T01:57:49;26.20;;;11.40;;
17864;SDS011;9058;52.018;4.202;2022-10-12T02:00:19;27.05;;;11.75;;
17864;SDS011;9058;52.018;4.202;2022-10-12T02:02:48;23.83;;;11.38;;
17864;SDS011;9058;52.018;4.202;2022-10-12T02:05:18;19.83;;;11.25;;
17864;SDS011;9058;52.018;4.202;2022-10-12T02:07:50;25.40;;;11.88;;
17864;SDS011;9058;52.018;4.202;2022-10-12T02:10:19;25.45;;;12.25;;
17864;SDS011;9058;52.018;4.202;2022-10-12T02:12:47;19.05;;;11.30;;
17864;SDS011;9058;52.018;4.202;2022-10-12T02:15:14;29.70;;;12.40;;
17864;SDS011;9058;52.018;4.202;2022-10-12T02:17:44;23.52;;;12.43;;
17864;SDS011;9058;52.018;4.202;2022-10-12T02:20:11;26.42;;;12.73;;
17864;SDS011;9058;52.018;4.202;2022-10-12T02:22:38;21.48;;;11.65;;
17864;SDS011;9058;52.018;4.202;2022-10-12T02:25:06;24.30;;;11.85;;
17864;SDS011;9058;52.018;4.202;2022-10-12T02:27:35;18.15;;;11.63;;
17864;SDS011;9058;52.018;4.202;2022-10-12T02:30:04;24.27;;;11.30;;
17864;SDS011;9058;52.018;4.202;2022-10-12T02:32:33;21.77;;;12.13;;
17864;SDS011;9058;52.018;4.202;2022-10-12T02:35:04;29.05;;;12.55;;
17864;SDS011;9058;52.018;4.202;2022-10-12T02:37:33;20.38;;;12.02;;
17864;SDS011;9058;52.018;4.202;2022-10-12T02:40:03;28.13;;;11.82;;
17864;SDS011;9058;52.018;4.202;2022-10-12T02:42:31;27.85;;;12.75;;
17864;SDS011;9058;52.018;4.202;2022-10-12T02:44:58;23.65;;;13.82;;
17864;SDS011;9058;52.018;4.202;2022-10-12T02:47:26;25.70;;;12.25;;
17864;SDS011;9058;52.018;4.202;2022-10-12T02:49:54;18.42;;;10.50;;
17864;SDS011;9058;52.018;4.202;2022-10-12T02:52:23;21.65;;;12.02;;
17864;SDS011;9058;52.018;4.202;2022-10-12T02:54:49;23.83;;;11.77;;
17864;SDS011;9058;52.018;4.202;2022-10-12T02:57:16;26.77;;;11.95;;
17864;SDS011;9058;52.018;4.202;2022-10-12T02:59:42;20.73;;;12.65;;
17864;SDS011;9058;52.018;4.202;2022-10-12T03:02:09;25.60;;;12.35;;
17864;SDS011;9058;52.018;4.202;2022-10-12T03:04:36;22.77;;;12.23;;
17864;SDS011;9058;52.018;4.202;2022-10-12T03:07:02;21.98;;;12.40;;
17864;SDS011;9058;52.018;4.202;2022-10-12T03:09:30;24.77;;;12.43;;
17864;SDS011;9058;52.018;4.202;2022-10-12T03:11:57;20.25;;;12.55;;
17864;SDS011;9058;52.018;4.202;2022-10-12T03:14:23;26.33;;;13.07;;
17864;SDS011;9058;52.018;4.202;2022-10-12T03:16:51;24.63;;;13.30;;
17864;SDS011;9058;52.018;4.202;2022-10-12T03:19:17;29.95;;;13.65;;
17864;SDS011;9058;52.018;4.202;2022-10-12T03:21:45;30.98;;;13.95;;
17864;SDS011;9058;52.018;4.202;2022-10-12T03:24:11;28.42;;;14.75;;
17864;SDS011;9058;52.018;4.202;2022-10-12T03:26:40;25.40;;;13.73;;
17864;SDS011;9058;52.018;4.202;2022-10-12T03:29:07;27.55;;;14.65;;
17864;SDS011;9058;52.018;4.202;2022-10-12T03:31:35;31.95;;;13.75;;
17864;SDS011;9058;52.018;4.202;2022-10-12T03:34:01;23.60;;;14.65;;
17864;SDS011;9058;52.018;4.202;2022-10-12T03:36:29;27.30;;;15.38;;
17864;SDS011;9058;52.018;4.202;2022-10-12T03:38:56;31.23;;;16.05;;
17864;SDS011;9058;52.018;4.202;2022-10-12T03:41:23;30.60;;;15.13;;
17864;SDS011;9058;52.018;4.202;2022-10-12T03:43:51;30.85;;;15.07;;
17864;SDS011;9058;52.018;4.202;2022-10-12T03:46:18;26.40;;;15.43;;
17864;SDS011;9058;52.018;4.202;2022-10-12T03:48:44;28.08;;;16.15;;
17864;SDS011;9058;52.018;4.202;2022-10-12T03:51:11;26.52;;;14.63;;
17864;SDS011;9058;52.018;4.202;2022-10-12T03:53:38;27.00;;;15.10;;
17864;SDS011;9058;52.018;4.202;2022-10-12T03:56:05;30.48;;;16.85;;
17864;SDS011;9058;52.018;4.202;2022-10-12T03:58:32;29.98;;;16.40;;
17864;SDS011;9058;52.018;4.202;2022-10-12T04:01:00;33.60;;;16.23;;
17864;SDS011;9058;52.018;4.202;2022-10-12T04:03:27;26.30;;;15.32;;
17864;SDS011;9058;52.018;4.202;2022-10-12T04:05:54;33.95;;;15.38;;
17864;SDS011;9058;52.018;4.202;2022-10-12T04:08:20;31.95;;;15.13;;
17864;SDS011;9058;52.018;4.202;2022-10-12T04:10:47;32.03;;;16.02;;
17864;SDS011;9058;52.018;4.202;2022-10-12T04:13:14;29.77;;;16.45;;
17864;SDS011;9058;52.018;4.202;2022-10-12T04:15:41;30.58;;;16.42;;
17864;SDS011;9058;52.018;4.202;2022-10-12T04:18:09;28.83;;;16.80;;
17864;SDS011;9058;52.018;4.202;2022-10-12T04:20:36;38.58;;;18.58;;
17864;SDS011;9058;52.018;4.202;2022-10-12T04:23:02;31.15;;;16.35;;
17864;SDS011;9058;52.018;4.202;2022-10-12T04:25:29;27.00;;;16.40;;
17864;SDS011;9058;52.018;4.202;2022-10-12T04:27:56;26.67;;;16.10;;
17864;SDS011;9058;52.018;4.202;2022-10-12T04:30:22;24.10;;;15.45;;
17864;SDS011;9058;52.018;4.202;2022-10-12T04:32:49;29.50;;;17.65;;
17864;SDS011;9058;52.018;4.202;2022-10-12T04:35:18;35.45;;;18.50;;
17864;SDS011;9058;52.018;4.202;2022-10-12T04:37:45;32.70;;;17.88;;
17864;SDS011;9058;52.018;4.202;2022-10-12T04:40:11;33.65;;;18.52;;
17864;SDS011;9058;52.018;4.202;2022-10-12T04:42:38;33.35;;;18.17;;
17864;SDS011;9058;52.018;4.202;2022-10-12T04:45:05;25.65;;;16.38;;
17864;SDS011;9058;52.018;4.202;2022-10-12T04:47:32;32.28;;;17.77;;
17864;SDS011;9058;52.018;4.202;2022-10-12T04:49:58;37.08;;;18.40;;
17864;SDS011;9058;52.018;4.202;2022-10-12T04:52:28;34.58;;;19.13;;
17864;SDS011;9058;52.018;4.202;2022-10-12T04:54:54;32.55;;;17.52;;
17864;SDS011;9058;52.018;4.202;2022-10-12T04:57:21;28.23;;;17.95;;
17864;SDS011;9058;52.018;4.202;2022-10-12T04:59:47;32.60;;;19.58;;
17864;SDS011;9058;52.018;4.202;2022-10-12T05:02:14;37.70;;;19.02;;
17864;SDS011;9058;52.018;4.202;2022-10-12T05:04:41;37.20;;;20.15;;
17864;SDS011;9058;52.018;4.202;2022-10-12T05:07:07;34.35;;;18.63;;
17864;SDS011;9058;52.018;4.202;2022-10-12T05:09:35;33.80;;;20.67;;
17864;SDS011;9058;52.018;4.202;2022-10-12T05:12:01;39.97;;;20.85;;
17864;SDS011;9058;52.018;4.202;2022-10-12T05:14:28;37.60;;;20.65;;
17864;SDS011;9058;52.018;4.202;2022-10-12T05:16:55;37.83;;;20.83;;
17864;SDS011;9058;52.018;4.202;2022-10-12T05:19:21;40.15;;;20.08;;
17864;SDS011;9058;52.018;4.202;2022-10-12T05:21:48;43.42;;;21.90;;
17864;SDS011;9058;52.018;4.202;2022-10-12T05:24:15;39.38;;;21.75;;
17864;SDS011;9058;52.018;4.202;2022-10-12T05:26:43;32.63;;;21.95;;
17864;SDS011;9058;52.018;4.202;2022-10-12T05:29:09;34.10;;;20.70;;
17864;SDS011;9058;52.018;4.202;2022-10-12T05:31:38;41.05;;;21.35;;
17864;SDS011;9058;52.018;4.202;2022-10-12T05:34:05;43.50;;;22.65;;
17864;SDS011;9058;52.018;4.202;2022-10-12T05:36:31;37.92;;;21.15;;
17864;SDS011;9058;52.018;4.202;2022-10-12T05:38:58;35.33;;;21.15;;
17864;SDS011;9058;52.018;4.202;2022-10-12T05:41:24;38.45;;;23.17;;
17864;SDS011;9058;52.018;4.202;2022-10-12T05:43:54;39.03;;;21.63;;
17864;SDS011;9058;52.018;4.202;2022-10-12T05:46:20;37.08;;;21.95;;
17864;SDS011;9058;52.018;4.202;2022-10-12T05:48:47;37.53;;;21.95;;
17864;SDS011;9058;52.018;4.202;2022-10-12T05:51:14;36.92;;;22.27;;
17864;SDS011;9058;52.018;4.202;2022-10-12T05:53:40;37.35;;;21.55;;
17864;SDS011;9058;52.018;4.202;2022-10-12T05:56:07;33.33;;;19.92;;
17864;SDS011;9058;52.018;4.202;2022-10-12T05:58:34;33.38;;;21.08;;
17864;SDS011;9058;52.018;4.202;2022-10-12T06:01:05;26.88;;;18.88;;
17864;SDS011;9058;52.018;4.202;2022-10-12T06:03:32;36.50;;;18.92;;
17864;SDS011;9058;52.018;4.202;2022-10-12T06:05:59;34.40;;;19.70;;
17864;SDS011;9058;52.018;4.202;2022-10-12T06:08:25;31.15;;;19.38;;
17864;SDS011;9058;52.018;4.202;2022-10-12T06:10:52;27.30;;;19.98;;
17864;SDS011;9058;52.018;4.202;2022-10-12T06:13:19;28.10;;;19.23;;
17864;SDS011;9058;52.018;4.202;2022-10-12T06:15:46;39.22;;;19.88;;
17864;SDS011;9058;52.018;4.202;2022-10-12T06:18:14;34.17;;;19.95;;
17864;SDS011;9058;52.018;4.202;2022-10-12T06:20:44;33.67;;;19.23;;
17864;SDS011;9058;52.018;4.202;2022-10-12T06:23:11;27.90;;;19.08;;
17864;SDS011;9058;52.018;4.202;2022-10-12T06:25:39;38.97;;;20.33;;
17864;SDS011;9058;52.018;4.202;2022-10-12T06:28:06;28.67;;;18.35;;
17864;SDS011;9058;52.018;4.202;2022-10-12T06:30:33;33.55;;;19.48;;
17864;SDS011;9058;52.018;4.202;2022-10-12T06:32:59;26.55;;;19.30;;
17864;SDS011;9058;52.018;4.202;2022-10-12T06:35:27;32.88;;;20.00;;
17864;SDS011;9058;52.018;4.202;2022-10-12T06:37:54;30.48;;;19.83;;
17864;SDS011;9058;52.018;4.202;2022-10-12T06:40:20;31.20;;;19.35;;
17864;SDS011;9058;52.018;4.202;2022-10-12T06:42:47;33.00;;;18.88;;
17864;SDS011;9058;52.018;4.202;2022-10-12T06:45:15;28.10;;;17.85;;
17864;SDS011;9058;52.018;4.202;2022-10-12T06:47:43;33.97;;;19.55;;
17864;SDS011;9058;52.018;4.202;2022-10-12T06:50:09;29.38;;;20.90;;
17864;SDS011;9058;52.018;4.202;2022-10-12T06:52:37;39.15;;;23.67;;
17864;SDS011;9058;52.018;4.202;2022-10-12T06:55:04;31.40;;;19.90;;
17864;SDS011;9058;52.018;4.202;2022-10-12T06:57:31;31.98;;;20.75;;
17864;SDS011;9058;52.018;4.202;2022-10-12T06:59:57;31.10;;;20.55;;
17864;SDS011;9058;52.018;4.202;2022-10-12T07:02:24;40.22;;;22.98;;
17864;SDS011;9058;52.018;4.202;2022-10-12T07:04:51;38.67;;;22.90;;
17864;SDS011;9058;52.018;4.202;2022-10-12T07:07:17;36.50;;;22.60;;
17864;SDS011;9058;52.018;4.202;2022-10-12T07:09:45;37.72;;;23.33;;
17864;SDS011;9058;52.018;4.202;2022-10-12T07:12:12;34.83;;;22.73;;
17864;SDS011;9058;52.018;4.202;2022-10-12T07:14:39;39.15;;;24.15;;
17864;SDS011;9058;52.018;4.202;2022-10-12T07:17:05;43.20;;;25.60;;
17864;SDS011;9058;52.018;4.202;2022-10-12T07:19:32;34.28;;;24.05;;
17864;SDS011;9058;52.018;4.202;2022-10-12T07:21:58;34.28;;;24.20;;
17864;SDS011;9058;52.018;4.202;2022-10-12T07:24:25;35.22;;;24.38;;
17864;SDS011;9058;52.018;4.202;2022-10-12T07:27:02;35.53;;;24.70;;
17864;SDS011;9058;52.018;4.202;2022-10-12T07:29:29;41.53;;;26.42;;
17864;SDS011;9058;52.018;4.202;2022-10-12T07:31:57;40.30;;;26.05;;
17864;SDS011;9058;52.018;4.202;2022-10-12T07:34:24;37.40;;;25.58;;
17864;SDS011;9058;52.018;4.202;2022-10-12T07:36:51;30.35;;;23.15;;
17864;SDS011;9058;52.018;4.202;2022-10-12T07:39:18;29.95;;;22.35;;
17864;SDS011;9058;52.018;4.202;2022-10-12T07:41:45;37.63;;;22.67;;
17864;SDS011;9058;52.018;4.202;2022-10-12T07:44:14;29.90;;;22.67;;
17864;SDS011;9058;52.018;4.202;2022-10-12T07:46:41;35.05;;;22.02;;
17864;SDS011;9058;52.018;4.202;2022-10-12T07:49:08;28.30;;;21.73;;
17864;SDS011;9058;52.018;4.202;2022-10-12T07:51:36;28.15;;;20.85;;
17864;SDS011;9058;52.018;4.202;2022-10-12T07:54:03;31.23;;;18.20;;
17864;SDS011;9058;52.018;4.202;2022-10-12T07:56:30;24.27;;;17.00;;
17864;SDS011;9058;52.018;4.202;2022-10-12T07:58:57;26.70;;;17.80;;
17864;SDS011;9058;52.018;4.202;2022-10-12T08:01:25;24.17;;;15.50;;
17864;SDS011;9058;52.018;4.202;2022-10-12T08:03:54;19.90;;;15.13;;
17864;SDS011;9058;52.018;4.202;2022-10-12T08:06:22;22.05;;;15.90;;
17864;SDS011;9058;52.018;4.202;2022-10-12T08:08:48;26.52;;;15.18;;
17864;SDS011;9058;52.018;4.202;2022-10-12T08:11:16;23.17;;;13.07;;
17864;SDS011;9058;52.018;4.202;2022-10-12T08:13:43;21.25;;;14.15;;
17864;SDS011;9058;52.018;4.202;2022-10-12T08:16:10;26.05;;;13.43;;
17864;SDS011;9058;52.018;4.202;2022-10-12T08:18:39;18.60;;;11.95;;
17864;SDS011;9058;52.018;4.202;2022-10-12T08:21:06;20.67;;;10.88;;
17864;SDS011;9058;52.018;4.202;2022-10-12T08:23:36;14.85;;;9.65;;
17864;SDS011;9058;52.018;4.202;2022-10-12T08:26:03;20.60;;;9.52;;
17864;SDS011;9058;52.018;4.202;2022-10-12T08:28:30;17.67;;;10.27;;
17864;SDS011;9058;52.018;4.202;2022-10-12T08:30:59;17.83;;;9.93;;
17864;SDS011;9058;52.018;4.202;2022-10-12T08:33:27;18.35;;;10.02;;
17864;SDS011;9058;52.018;4.202;2022-10-12T08:35:57;20.45;;;10.15;;
17864;SDS011;9058;52.018;4.202;2022-10-12T08:38:27;20.05;;;9.90;;
17864;SDS011;9058;52.018;4.202;2022-10-12T08:40:55;21.05;;;9.80;;
17864;SDS011;9058;52.018;4.202;2022-10-12T08:43:25;17.02;;;9.65;;
17864;SDS011;9058;52.018;4.202;2022-10-12T08:45:56;22.83;;;9.25;;
17864;SDS011;9058;52.018;4.202;2022-10-12T08:48:24;18.73;;;9.40;;
17864;SDS011;9058;52.018;4.202;2022-10-12T08:50:52;19.85;;;8.95;;
17864;SDS011;9058;52.018;4.202;2022-10-12T08:53:22;20.40;;;8.48;;
17864;SDS011;9058;52.018;4.202;2022-10-12T08:55:51;15.27;;;8.25;;
17864;SDS011;9058;52.018;4.202;2022-10-12T08:58:20;16.67;;;7.88;;
17864;SDS011;9058;52.018;4.202;2022-10-12T09:00:47;17.40;;;7.93;;
17864;SDS011;9058;52.018;4.202;2022-10-12T09:03:17;18.83;;;6.88;;
17864;SDS011;9058;52.018;4.202;2022-10-12T09:05:49;17.67;;;6.95;;
17864;SDS011;9058;52.018;4.202;2022-10-12T09:08:23;17.70;;;7.25;;
17864;SDS011;9058;52.018;4.202;2022-10-12T09:10:53;18.98;;;8.32;;
17864;SDS011;9058;52.018;4.202;2022-10-12T09:13:27;16.13;;;7.50;;
17864;SDS011;9058;52.018;4.202;2022-10-12T09:15:58;18.85;;;7.57;;
17864;SDS011;9058;52.018;4.202;2022-10-12T09:18:28;13.23;;;7.25;;
17864;SDS011;9058;52.018;4.202;2022-10-12T09:20:57;16.25;;;7.47;;
17864;SDS011;9058;52.018;4.202;2022-10-12T09:23:26;15.68;;;7.20;;
17864;SDS011;9058;52.018;4.202;2022-10-12T09:25:54;23.48;;;8.88;;
17864;SDS011;9058;52.018;4.202;2022-10-12T09:28:25;16.20;;;8.57;;
17864;SDS011;9058;52.018;4.202;2022-10-12T09:31:05;20.63;;;8.77;;
17864;SDS011;9058;52.018;4.202;2022-10-12T09:33:37;23.17;;;9.40;;
17864;SDS011;9058;52.018;4.202;2022-10-12T09:36:06;21.33;;;9.18;;
17864;SDS011;9058;52.018;4.202;2022-10-12T09:38:36;15.70;;;8.80;;
17864;SDS011;9058;52.018;4.202;2022-10-12T09:41:03;21.08;;;9.13;;
17864;SDS011;9058;52.018;4.202;2022-10-12T09:43:30;17.42;;;7.38;;
17864;SDS011;9058;52.018;4.202;2022-10-12T09:45:58;14.73;;;7.53;;
17864;SDS011;9058;52.018;4.202;2022-10-12T09:48:26;17.73;;;9.15;;
17864;SDS011;9058;52.018;4.202;2022-10-12T09:50:53;21.08;;;9.52;;
17864;SDS011;9058;52.018;4.202;2022-10-12T09:53:23;19.40;;;9.35;;
17864;SDS011;9058;52.018;4.202;2022-10-12T09:55:55;24.08;;;9.38;;
17864;SDS011;9058;52.018;4.202;2022-10-12T09:58:22;17.13;;;8.80;;
17864;SDS011;9058;52.018;4.202;2022-10-12T10:01:09;17.95;;;8.82;;
17864;SDS011;9058;52.018;4.202;2022-10-12T10:03:36;15.93;;;8.63;;
17864;SDS011;9058;52.018;4.202;2022-10-12T10:06:03;15.63;;;8.15;;
17864;SDS011;9058;52.018;4.202;2022-10-12T10:08:33;13.75;;;6.72;;
17864;SDS011;9058;52.018;4.202;2022-10-12T10:11:06;18.10;;;6.47;;
17864;SDS011;9058;52.018;4.202;2022-10-12T10:13:38;14.15;;;6.28;;
17864;SDS011;9058;52.018;4.202;2022-10-12T10:16:10;12.35;;;5.40;;
17864;SDS011;9058;52.018;4.202;2022-10-12T10:18:37;14.07;;;5.10;;
17864;SDS011;9058;52.018;4.202;2022-10-12T10:21:05;14.55;;;4.95;;
17864;SDS011;9058;52.018;4.202;2022-10-12T10:23:35;12.68;;;4.18;;
17864;SDS011;9058;52.018;4.202;2022-10-12T10:26:05;11.68;;;4.50;;
17864;SDS011;9058;52.018;4.202;2022-10-12T10:28:34;15.35;;;5.95;;
17864;SDS011;9058;52.018;4.202;2022-10-12T10:31:01;13.27;;;5.78;;
17864;SDS011;9058;52.018;4.202;2022-10-12T10:33:29;15.80;;;5.75;;
17864;SDS011;9058;52.018;4.202;2022-10-12T10:35:57;15.43;;;6.40;;
17864;SDS011;9058;52.018;4.202;2022-10-12T10:38:24;21.15;;;7.38;;
17864;SDS011;9058;52.018;4.202;2022-10-12T10:40:51;10.93;;;6.13;;
17864;SDS011;9058;52.018;4.202;2022-10-12T10:43:20;16.45;;;6.30;;
17864;SDS011;9058;52.018;4.202;2022-10-12T10:45:50;12.40;;;5.60;;
17864;SDS011;9058;52.018;4.202;2022-10-12T10:48:18;17.60;;;6.30;;
17864;SDS011;9058;52.018;4.202;2022-10-12T10:50:49;16.25;;;6.80;;
17864;SDS011;9058;52.018;4.202;2022-10-12T10:53:17;15.80;;;6.05;;
17864;SDS011;9058;52.018;4.202;2022-10-12T10:55:46;17.83;;;6.20;;
17864;SDS011;9058;52.018;4.202;2022-10-12T10:58:18;14.48;;;5.97;;
17864;SDS011;9058;52.018;4.202;2022-10-12T11:00:46;10.35;;;5.57;;
17864;SDS011;9058;52.018;4.202;2022-10-12T11:03:15;10.95;;;4.95;;
17864;SDS011;9058;52.018;4.202;2022-10-12T11:05:45;11.20;;;4.07;;
17864;SDS011;9058;52.018;4.202;2022-10-12T11:08:14;10.30;;;5.35;;
17864;SDS011;9058;52.018;4.202;2022-10-12T11:10:43;12.40;;;5.00;;
17864;SDS011;9058;52.018;4.202;2022-10-12T11:13:13;10.95;;;5.57;;
17864;SDS011;9058;52.018;4.202;2022-10-12T11:15:42;17.35;;;6.65;;
17864;SDS011;9058;52.018;4.202;2022-10-12T11:18:11;16.05;;;5.93;;
17864;SDS011;9058;52.018;4.202;2022-10-12T11:20:44;19.40;;;6.05;;
17864;SDS011;9058;52.018;4.202;2022-10-12T11:23:23;14.40;;;5.82;;
17864;SDS011;9058;52.018;4.202;2022-10-12T11:25:57;15.32;;;5.80;;
17864;SDS011;9058;52.018;4.202;2022-10-12T11:28:25;14.10;;;5.78;;
17864;SDS011;9058;52.018;4.202;2022-10-12T11:30:53;11.82;;;5.28;;
17864;SDS011;9058;52.018;4.202;2022-10-12T11:33:21;15.38;;;6.38;;
17864;SDS011;9058;52.018;4.202;2022-10-12T11:35:50;14.15;;;6.68;;
17864;SDS011;9058;52.018;4.202;2022-10-12T11:38:19;16.42;;;5.53;;
17864;SDS011;9058;52.018;4.202;2022-10-12T11:40:47;11.25;;;5.28;;
17864;SDS011;9058;52.018;4.202;2022-10-12T11:43:17;13.88;;;5.88;;
17864;SDS011;9058;52.018;4.202;2022-10-12T11:45:46;13.13;;;5.40;;
17864;SDS011;9058;52.018;4.202;2022-10-12T11:48:16;14.45;;;5.97;;
17864;SDS011;9058;52.018;4.202;2022-10-12T11:50:46;14.73;;;6.47;;
17864;SDS011;9058;52.018;4.202;2022-10-12T11:53:18;15.15;;;5.85;;
17864;SDS011;9058;52.018;4.202;2022-10-12T11:55:52;16.60;;;5.68;;
17864;SDS011;9058;52.018;4.202;2022-10-12T11:58:21;10.82;;;5.63;;
17864;SDS011;9058;52.018;4.202;2022-10-12T12:00:54;13.43;;;5.82;;
17864;SDS011;9058;52.018;4.202;2022-10-12T12:03:24;16.02;;;6.75;;
17864;SDS011;9058;52.018;4.202;2022-10-12T12:05:54;13.60;;;6.13;;
17864;SDS011;9058;52.018;4.202;2022-10-12T12:08:22;13.13;;;5.65;;
17864;SDS011;9058;52.018;4.202;2022-10-12T12:11:17;16.50;;;6.18;;
17864;SDS011;9058;52.018;4.202;2022-10-12T12:13:44;15.38;;;8.23;;
17864;SDS011;9058;52.018;4.202;2022-10-12T12:16:20;14.38;;;7.10;;
17864;SDS011;9058;52.018;4.202;2022-10-12T12:21:43;17.38;;;8.13;;
17864;SDS011;9058;52.018;4.202;2022-10-12T12:24:32;16.17;;;10.30;;
17864;SDS011;9058;52.018;4.202;2022-10-12T12:26:59;13.55;;;9.07;;
17864;SDS011;9058;52.018;4.202;2022-10-12T12:29:25;20.08;;;9.45;;
17864;SDS011;9058;52.018;4.202;2022-10-12T12:31:54;16.42;;;8.68;;
17864;SDS011;9058;52.018;4.202;2022-10-12T12:34:23;14.25;;;7.78;;
17864;SDS011;9058;52.018;4.202;2022-10-12T12:36:50;15.55;;;7.40;;
17864;SDS011;9058;52.018;4.202;2022-10-12T12:39:19;15.07;;;7.00;;
17864;SDS011;9058;52.018;4.202;2022-10-12T12:41:49;13.73;;;7.15;;
17864;SDS011;9058;52.018;4.202;2022-10-12T12:44:36;13.65;;;6.78;;
17864;SDS011;9058;52.018;4.202;2022-10-12T12:49:46;15.48;;;8.70;;
17864;SDS011;9058;52.018;4.202;2022-10-12T12:52:16;19.33;;;9.27;;
17864;SDS011;9058;52.018;4.202;2022-10-12T12:54:56;17.80;;;8.02;;
17864;SDS011;9058;52.018;4.202;2022-10-12T12:57:31;15.02;;;8.27;;
17864;SDS011;9058;52.018;4.202;2022-10-12T13:00:03;15.40;;;8.40;;
17864;SDS011;9058;52.018;4.202;2022-10-12T13:02:40;19.20;;;7.85;;
17864;SDS011;9058;52.018;4.202;2022-10-12T13:05:24;14.80;;;7.55;;
17864;SDS011;9058;52.018;4.202;2022-10-12T13:07:58;15.60;;;7.60;;
17864;SDS011;9058;52.018;4.202;2022-10-12T13:10:30;15.55;;;8.80;;
17864;SDS011;9058;52.018;4.202;2022-10-12T13:13:05;17.00;;;8.73;;
17864;SDS011;9058;52.018;4.202;2022-10-12T13:15:36;13.88;;;7.85;;
17864;SDS011;9058;52.018;4.202;2022-10-12T13:18:22;16.27;;;6.65;;
17864;SDS011;9058;52.018;4.202;2022-10-12T13:20:52;11.05;;;6.30;;
17864;SDS011;9058;52.018;4.202;2022-10-12T13:23:19;13.65;;;7.03;;
17864;SDS011;9058;52.018;4.202;2022-10-12T13:25:47;15.65;;;6.00;;
17864;SDS011;9058;52.018;4.202;2022-10-12T13:28:23;14.18;;;6.95;;
17864;SDS011;9058;52.018;4.202;2022-10-12T13:30:57;18.02;;;7.90;;
17864;SDS011;9058;52.018;4.202;2022-10-12T13:33:25;10.38;;;7.47;;
17864;SDS011;9058;52.018;4.202;2022-10-12T13:35:57;13.38;;;7.55;;
17864;SDS011;9058;52.018;4.202;2022-10-12T13:38:26;15.80;;;7.88;;
17864;SDS011;9058;52.018;4.202;2022-10-12T13:40:54;16.90;;;8.02;;
17864;SDS011;9058;52.018;4.202;2022-10-12T13:43:30;13.55;;;8.00;;
17864;SDS011;9058;52.018;4.202;2022-10-12T13:45:57;17.83;;;7.78;;
17864;SDS011;9058;52.018;4.202;2022-10-12T13:48:25;16.65;;;8.32;;
17864;SDS011;9058;52.018;4.202;2022-10-12T13:50:53;21.83;;;7.82;;
17864;SDS011;9058;52.018;4.202;2022-10-12T13:53:20;14.05;;;7.30;;
17864;SDS011;9058;52.018;4.202;2022-10-12T13:55:49;15.48;;;6.45;;
17864;SDS011;9058;52.018;4.202;2022-10-12T13:58:19;16.67;;;6.63;;
17864;SDS011;9058;52.018;4.202;2022-10-12T14:00:49;13.35;;;6.60;;
17864;SDS011;9058;52.018;4.202;2022-10-12T14:03:15;14.07;;;6.70;;
17864;SDS011;9058;52.018;4.202;2022-10-12T14:05:43;15.35;;;5.95;;
17864;SDS011;9058;52.018;4.202;2022-10-12T14:08:11;15.90;;;6.30;;
17864;SDS011;9058;52.018;4.202;2022-10-12T14:10:38;13.18;;;6.50;;
17864;SDS011;9058;52.018;4.202;2022-10-12T14:13:06;15.48;;;7.22;;
17864;SDS011;9058;52.018;4.202;2022-10-12T14:15:34;13.02;;;7.03;;
17864;SDS011;9058;52.018;4.202;2022-10-12T14:18:03;11.38;;;6.05;;
17864;SDS011;9058;52.018;4.202;2022-10-12T14:20:31;14.93;;;6.82;;
17864;SDS011;9058;52.018;4.202;2022-10-12T14:22:59;13.80;;;6.85;;
17864;SDS011;9058;52.018;4.202;2022-10-12T14:25:26;10.90;;;5.93;;
17864;SDS011;9058;52.018;4.202;2022-10-12T14:27:53;16.25;;;7.72;;
17864;SDS011;9058;52.018;4.202;2022-10-12T14:30:22;18.58;;;8.02;;
17864;SDS011;9058;52.018;4.202;2022-10-12T14:32:49;13.93;;;7.68;;
17864;SDS011;9058;52.018;4.202;2022-10-12T14:35:20;15.57;;;8.13;;
17864;SDS011;9058;52.018;4.202;2022-10-12T14:37:48;16.17;;;8.07;;
17864;SDS011;9058;52.018;4.202;2022-10-12T14:40:24;14.27;;;7.25;;
17864;SDS011;9058;52.018;4.202;2022-10-12T14:42:56;15.60;;;7.45;;
17864;SDS011;9058;52.018;4.202;2022-10-12T14:45:23;16.35;;;7.78;;
17864;SDS011;9058;52.018;4.202;2022-10-12T14:47:51;16.58;;;7.22;;
17864;SDS011;9058;52.018;4.202;2022-10-12T14:50:20;14.55;;;7.85;;
17864;SDS011;9058;52.018;4.202;2022-10-12T14:52:48;18.08;;;7.65;;
17864;SDS011;9058;52.018;4.202;2022-10-12T14:55:16;12.93;;;6.95;;